Time;durP1;ratioP1;P1;durP2;ratioP2;P2;SDS_P1;SDS_P2;PMS_P1;PMS_P2;Temp;Humidity;BMP_temperature;BMP_pressure;BME280_temperature;BME280_humidity;BME280_pressure;Samples;Min_cycle;Max_cycle;Signal;HPM_P1;HPM_P2
2024/01/03 00:00:08;;;;;;;6.72;4.18;;;6.80;98.80;;;;;;5053911;28;20049;-64
2024/01/03 00:02:34;;;;;;;5.53;3.72;;;6.80;98.90;;;;;;5053521;28;20110;-64
2024/01/03 00:05:00;;;;;;;6.65;4.38;;;6.70;98.90;;;;;;5054355;28;20028;-64
2024/01/03 00:07:26;;;;;;;6.28;3.92;;;6.70;98.80;;;;;;5053527;28;20033;-65
2024/01/03 00:10:00;;;;;;;6.22;4.22;;;6.80;98.90;;;;;;5053947;28;20078;-65
2024/01/03 00:12:25;;;;;;;8.38;4.40;;;6.80;98.80;;;;;;5053488;28;20394;-65
2024/01/03 00:14:51;;;;;;;5.05;3.88;;;6.80;99.00;;;;;;5053232;28;20021;-66
2024/01/03 00:17:18;;;;;;;8.63;4.80;;;6.70;99.00;;;;;;5053353;28;20040;-65
2024/01/03 00:19:44;;;;;;;5.78;4.10;;;6.70;99.00;;;;;;5053631;28;20029;-65
2024/01/03 00:22:13;;;;;;;6.13;4.28;;;6.70;99.10;;;;;;5053728;28;20493;-65
2024/01/03 00:24:46;;;;;;;7.75;4.68;;;6.70;98.90;;;;;;5051668;28;20025;-64
2024/01/03 00:27:12;;;;;;;7.15;4.88;;;6.70;99.00;;;;;;5053743;28;20029;-65
2024/01/03 00:29:57;;;;;;;9.25;5.28;;;6.70;99.10;;;;;;5052800;28;20022;-65
2024/01/03 00:32:23;;;;;;;8.25;5.05;;;6.70;99.10;;;;;;5053275;28;20087;-65
2024/01/03 00:34:49;;;;;;;8.13;5.15;;;6.70;99.30;;;;;;5053174;28;20029;-65
2024/01/03 00:37:23;;;;;;;7.97;4.75;;;6.70;99.60;;;;;;5052904;28;20462;-64
2024/01/03 00:39:49;;;;;;;7.20;4.88;;;6.70;99.80;;;;;;5053291;28;20025;-64
2024/01/03 00:42:14;;;;;;;7.68;4.90;;;6.70;99.90;;;;;;5053173;28;20043;-64
2024/01/03 00:44:40;;;;;;;8.48;5.63;;;6.70;99.90;;;;;;5052565;28;20528;-64
2024/01/03 00:47:06;;;;;;;9.50;5.95;;;6.70;99.90;;;;;;5052540;28;20108;-65
2024/01/03 00:49:32;;;;;;;8.40;5.40;;;6.70;99.90;;;;;;5052410;28;20458;-65
2024/01/03 00:52:00;;;;;;;9.95;6.32;;;6.70;99.90;;;;;;5053047;28;20029;-64
2024/01/03 00:54:27;;;;;;;10.73;5.93;;;6.60;99.90;;;;;;5052711;28;20146;-65
2024/01/03 00:56:53;;;;;;;9.88;5.95;;;6.60;99.90;;;;;;5053170;28;20064;-65
2024/01/03 00:59:19;;;;;;;10.07;5.85;;;6.70;99.90;;;;;;5052776;28;20045;-69
2024/01/03 01:01:45;;;;;;;9.88;5.50;;;6.70;99.90;;;;;;5053030;28;20489;-65
2024/01/03 01:04:13;;;;;;;10.38;5.95;;;6.60;99.90;;;;;;5052773;28;20033;-64
2024/01/03 01:06:41;;;;;;;10.65;5.95;;;6.70;99.90;;;;;;5051093;28;20033;-64
2024/01/03 01:09:08;;;;;;;8.68;5.88;;;6.70;99.90;;;;;;5052572;28;20029;-65
2024/01/03 01:11:36;;;;;;;10.98;6.35;;;6.60;99.90;;;;;;5052169;28;20021;-64
2024/01/03 01:14:02;;;;;;;8.30;5.55;;;6.70;99.90;;;;;;5052649;28;20111;-64
2024/01/03 01:16:28;;;;;;;12.32;7.10;;;6.70;99.90;;;;;;5051987;28;20111;-65
2024/01/03 01:18:53;;;;;;;10.90;5.75;;;6.70;99.90;;;;;;5052958;28;20033;-64
2024/01/03 01:21:19;;;;;;;8.70;5.63;;;6.70;99.90;;;;;;5052630;28;20033;-66
2024/01/03 01:23:45;;;;;;;7.43;4.63;;;6.80;99.90;;;;;;5051908;28;20520;-64
2024/01/03 01:26:10;;;;;;;11.45;6.78;;;6.80;99.90;;;;;;5057794;28;20083;-64
2024/01/03 01:28:36;;;;;;;9.38;5.40;;;6.80;99.90;;;;;;5056664;28;20017;-65
2024/01/03 01:31:02;;;;;;;9.65;5.55;;;6.80;99.90;;;;;;5062419;28;20385;-65
2024/01/03 01:33:27;;;;;;;7.68;5.00;;;6.90;99.90;;;;;;5062012;28;20110;-65
2024/01/03 01:35:53;;;;;;;10.48;5.75;;;6.90;99.90;;;;;;5060650;28;20104;-65
2024/01/03 01:38:19;;;;;;;7.95;4.95;;;6.90;99.90;;;;;;5061285;28;20483;-65
2024/01/03 01:40:48;;;;;;;9.13;5.28;;;6.90;99.90;;;;;;5059595;28;20033;-64
2024/01/03 01:43:14;;;;;;;9.07;5.68;;;7.00;99.90;;;;;;5062662;28;20055;-66
2024/01/03 01:45:40;;;;;;;9.75;5.75;;;7.00;99.90;;;;;;5060882;28;20052;-64
2024/01/03 01:48:07;;;;;;;8.70;4.75;;;7.00;99.90;;;;;;5061877;28;20036;-65
2024/01/03 01:50:33;;;;;;;9.30;5.18;;;7.00;99.90;;;;;;5059986;28;20431;-64
2024/01/03 01:52:59;;;;;;;8.10;4.72;;;7.10;99.90;;;;;;5060250;28;20440;-65
2024/01/03 01:55:24;;;;;;;9.88;4.88;;;7.10;99.90;;;;;;5061061;28;20032;-66
2024/01/03 01:57:51;;;;;;;7.75;5.00;;;7.10;99.90;;;;;;5061926;28;20091;-65
2024/01/03 02:00:17;;;;;;;8.23;4.82;;;7.10;99.90;;;;;;5060405;28;20044;-65
2024/01/03 02:02:45;;;;;;;8.63;4.63;;;7.10;99.90;;;;;;5062775;28;20055;-65
2024/01/03 02:05:11;;;;;;;10.20;4.68;;;7.20;99.90;;;;;;5060386;28;20100;-65
2024/01/03 02:07:37;;;;;;;7.50;4.78;;;7.20;99.90;;;;;;5062392;28;20021;-65
2024/01/03 02:10:03;;;;;;;7.55;4.53;;;7.20;99.90;;;;;;5060847;28;20047;-65
2024/01/03 02:12:29;;;;;;;7.05;4.28;;;7.20;99.90;;;;;;5060804;28;20093;-64
2024/01/03 02:14:55;;;;;;;7.78;4.35;;;7.20;99.90;;;;;;5061919;28;20090;-64
2024/01/03 02:17:21;;;;;;;7.43;4.15;;;7.20;99.90;;;;;;5059985;28;20071;-64
2024/01/03 02:19:47;;;;;;;7.05;3.95;;;7.30;99.90;;;;;;5054588;28;20043;-65
2024/01/03 02:22:13;;;;;;;5.50;3.83;;;7.30;99.90;;;;;;5050876;28;20025;-64
2024/01/03 02:24:38;;;;;;;7.50;4.47;;;7.30;99.90;;;;;;5050512;28;20428;-65
2024/01/03 02:27:04;;;;;;;6.75;3.80;;;7.30;99.90;;;;;;5050891;28;20075;-65
2024/01/03 02:29:30;;;;;;;5.88;3.42;;;7.30;99.90;;;;;;5050865;28;20045;-65
2024/01/03 02:31:55;;;;;;;5.63;3.75;;;7.30;99.90;;;;;;5051147;28;20043;-65
2024/01/03 02:34:21;;;;;;;7.65;3.65;;;7.40;99.90;;;;;;5050757;28;20069;-65
2024/01/03 02:36:49;;;;;;;6.25;3.63;;;7.40;99.90;;;;;;5050900;28;20377;-65
2024/01/03 02:39:15;;;;;;;5.57;3.13;;;7.40;99.90;;;;;;5053590;28;20017;-65
2024/01/03 02:41:41;;;;;;;7.05;3.38;;;7.40;99.90;;;;;;5055213;28;20419;-65
2024/01/03 02:44:07;;;;;;;7.35;3.42;;;7.40;99.90;;;;;;5055771;28;20028;-65
2024/01/03 02:46:32;;;;;;;5.72;3.10;;;7.40;99.70;;;;;;5054727;28;20025;-63
2024/01/03 02:48:58;;;;;;;5.32;2.92;;;7.40;99.80;;;;;;5055325;28;20025;-64
2024/01/03 02:51:23;;;;;;;5.47;2.63;;;7.50;99.90;;;;;;5055034;28;20025;-65
2024/01/03 02:53:49;;;;;;;4.35;2.80;;;7.50;99.90;;;;;;5054498;28;20032;-64
2024/01/03 02:56:16;;;;;;;4.05;2.33;;;7.50;99.90;;;;;;5055092;28;20033;-65
2024/01/03 02:58:41;;;;;;;3.22;2.53;;;7.50;99.90;;;;;;5054539;28;20190;-65
2024/01/03 03:01:07;;;;;;;2.65;1.70;;;7.50;99.90;;;;;;5055182;28;20493;-65
2024/01/03 03:03:33;;;;;;;3.22;2.15;;;7.70;99.90;;;;;;5054336;28;20377;-66
2024/01/03 03:05:58;;;;;;;3.25;1.90;;;7.80;99.90;;;;;;5050716;28;20638;-65
2024/01/03 03:08:24;;;;;;;3.53;2.20;;;7.90;99.90;;;;;;5054214;28;20025;-65
2024/01/03 03:10:50;;;;;;;3.63;2.00;;;8.00;99.90;;;;;;5054256;28;20044;-64
2024/01/03 03:13:16;;;;;;;2.30;1.70;;;8.00;99.90;;;;;;5054972;28;20025;-64
2024/01/03 03:15:42;;;;;;;3.00;2.10;;;8.10;99.90;;;;;;5054515;28;20033;-64
2024/01/03 03:18:08;;;;;;;5.10;1.80;;;8.10;99.90;;;;;;5054604;28;20090;-65
2024/01/03 03:20:34;;;;;;;3.00;1.88;;;8.20;99.90;;;;;;5054400;28;20033;-65
2024/01/03 03:23:00;;;;;;;2.30;1.65;;;8.20;99.90;;;;;;5054743;28;20025;-65
2024/01/03 03:25:25;;;;;;;2.67;1.50;;;8.20;99.90;;;;;;5053399;28;20033;-64
2024/01/03 03:27:51;;;;;;;2.03;1.30;;;8.30;99.90;;;;;;5054572;28;20037;-65
2024/01/03 03:30:17;;;;;;;2.70;1.75;;;8.30;99.90;;;;;;5054703;28;20079;-65
2024/01/03 03:32:45;;;;;;;2.08;1.60;;;8.40;99.90;;;;;;5053938;28;20064;-65
2024/01/03 03:35:12;;;;;;;4.35;2.40;;;8.40;99.90;;;;;;5054521;28;20028;-64
2024/01/03 03:37:38;;;;;;;4.20;2.33;;;8.40;99.90;;;;;;5054089;28;20033;-65
2024/01/03 03:40:04;;;;;;;4.93;2.75;;;8.40;99.90;;;;;;5054214;28;20147;-65
2024/01/03 03:42:30;;;;;;;3.47;2.40;;;8.40;99.90;;;;;;5053939;28;20104;-65
2024/01/03 03:44:55;;;;;;;3.63;2.20;;;8.40;99.90;;;;;;5053504;28;20032;-64
2024/01/03 03:47:21;;;;;;;3.72;2.42;;;8.30;99.90;;;;;;5053599;28;20021;-65
2024/01/03 03:49:46;;;;;;;4.32;2.15;;;8.40;99.90;;;;;;5052179;28;20584;-64
2024/01/03 03:52:12;;;;;;;3.13;1.98;;;8.30;99.90;;;;;;5054164;28;20065;-64
2024/01/03 03:54:38;;;;;;;2.95;1.90;;;8.30;99.90;;;;;;5053742;28;20028;-65
2024/01/03 03:57:04;;;;;;;2.45;1.63;;;8.30;99.90;;;;;;5054082;28;20025;-64
2024/01/03 03:59:29;;;;;;;3.80;1.48;;;8.40;99.90;;;;;;5068495;28;20389;-65
2024/01/03 04:01:55;;;;;;;2.40;1.33;;;8.40;99.90;;;;;;5073589;28;20281;-66
2024/01/03 04:04:21;;;;;;;2.47;1.70;;;8.30;99.90;;;;;;5073690;28;20457;-66
2024/01/03 04:06:47;;;;;;;2.58;1.33;;;8.40;99.90;;;;;;5073719;28;20021;-65
2024/01/03 04:09:13;;;;;;;1.45;1.08;;;8.30;99.90;;;;;;5074094;28;20484;-65
2024/01/03 04:11:40;;;;;;;1.60;1.08;;;8.40;99.90;;;;;;5064803;28;20374;-66
2024/01/03 04:14:07;;;;;;;0.80;0.80;;;8.40;99.90;;;;;;5050892;28;20025;-65
2024/01/03 04:16:33;;;;;;;1.98;1.08;;;8.40;99.90;;;;;;5053367;28;20099;-65
2024/01/03 04:18:58;;;;;;;1.40;0.93;;;8.40;99.90;;;;;;5052700;28;20354;-65
2024/01/03 04:21:24;;;;;;;1.42;1.00;;;8.50;99.90;;;;;;5053104;28;20036;-65
2024/01/03 04:23:49;;;;;;;1.80;0.50;;;8.50;99.90;;;;;;5052817;28;20032;-65
2024/01/03 04:26:15;;;;;;;0.47;0.47;;;8.60;99.90;;;;;;5052966;28;20025;-65
2024/01/03 04:28:41;;;;;;;0.68;0.50;;;8.80;99.90;;;;;;5052500;28;20025;-65
2024/01/03 04:31:06;;;;;;;1.08;0.57;;;9.00;99.90;;;;;;5052706;28;20064;-65
2024/01/03 04:33:32;;;;;;;0.65;0.55;;;9.10;99.90;;;;;;5052722;28;20361;-65
2024/01/03 04:35:57;;;;;;;0.70;0.70;;;9.30;99.90;;;;;;5052530;28;20029;-64
2024/01/03 04:38:23;;;;;;;0.45;0.45;;;9.40;99.90;;;;;;5052332;28;20450;-66
2024/01/03 04:40:48;;;;;;;1.30;0.60;;;9.50;99.90;;;;;;5052463;28;20040;-63
2024/01/03 04:43:14;;;;;;;2.78;0.73;;;9.60;99.90;;;;;;5052657;28;20021;-65
2024/01/03 04:45:40;;;;;;;1.88;0.80;;;9.70;99.90;;;;;;5052256;28;20426;-65
2024/01/03 04:48:06;;;;;;;1.67;0.70;;;9.80;99.90;;;;;;5053957;28;20379;-65
2024/01/03 04:50:31;;;;;;;1.85;0.80;;;9.80;99.90;;;;;;5062027;28;20063;-65
2024/01/03 04:52:59;;;;;;;1.13;0.63;;;9.90;99.90;;;;;;5062487;28;20547;-65
2024/01/03 04:55:25;;;;;;;1.35;0.50;;;10.00;99.90;;;;;;5060219;28;20036;-64
2024/01/03 04:57:50;;;;;;;1.48;0.80;;;10.00;99.90;;;;;;5062437;28;20048;-65
2024/01/03 05:00:16;;;;;;;1.17;0.70;;;10.10;99.90;;;;;;5062180;28;20489;-65
2024/01/03 05:02:42;;;;;;;1.67;0.85;;;10.10;99.90;;;;;;5062044;28;20036;-64
2024/01/03 05:05:07;;;;;;;2.83;0.90;;;10.10;99.90;;;;;;5053996;28;20116;-65
2024/01/03 05:07:34;;;;;;;3.13;0.73;;;10.20;99.90;;;;;;5052401;28;20033;-65
2024/01/03 05:10:01;;;;;;;1.05;0.70;;;10.20;99.90;;;;;;5051293;28;20504;-65
2024/01/03 05:12:27;;;;;;;1.13;0.70;;;10.20;99.90;;;;;;5052290;28;20037;-66
2024/01/03 05:14:52;;;;;;;1.95;0.70;;;10.20;99.90;;;;;;5051925;28;20460;-66
2024/01/03 05:17:18;;;;;;;1.00;0.80;;;10.20;99.90;;;;;;5052607;28;20060;-66
2024/01/03 05:19:44;;;;;;;1.00;0.80;;;10.20;99.90;;;;;;5050841;28;20127;-65
2024/01/03 05:22:09;;;;;;;3.15;0.70;;;10.20;99.90;;;;;;5052443;28;20071;-65
2024/01/03 05:24:35;;;;;;;0.77;0.52;;;10.20;99.90;;;;;;5052076;28;20432;-65
2024/01/03 05:27:01;;;;;;;1.10;0.60;;;10.20;99.50;;;;;;5050894;28;20251;-65
2024/01/03 05:29:27;;;;;;;0.85;0.70;;;10.30;99.00;;;;;;5052073;28;20158;-65
2024/01/03 05:31:53;;;;;;;1.50;0.73;;;10.30;98.90;;;;;;5051582;28;20358;-65
2024/01/03 05:34:19;;;;;;;0.63;0.60;;;10.30;98.70;;;;;;5051621;28;20024;-64
2024/01/03 05:36:44;;;;;;;0.70;0.57;;;10.30;98.50;;;;;;5051656;28;20484;-66
2024/01/03 05:39:13;;;;;;;0.90;0.45;;;10.30;98.40;;;;;;5051883;28;20029;-65
2024/01/03 05:41:39;;;;;;;0.80;0.60;;;10.30;97.70;;;;;;5052196;28;20040;-65
2024/01/03 05:44:04;;;;;;;2.10;0.52;;;10.30;97.50;;;;;;5051489;28;20021;-65
2024/01/03 05:46:30;;;;;;;1.60;0.70;;;10.40;97.20;;;;;;5052056;28;20033;-65
2024/01/03 05:48:56;;;;;;;1.48;0.70;;;10.40;96.60;;;;;;5051691;28;20449;-65
2024/01/03 05:51:22;;;;;;;1.63;0.73;;;10.40;96.00;;;;;;5051736;28;20033;-65
2024/01/03 05:53:48;;;;;;;1.75;0.68;;;10.50;95.50;;;;;;5051523;28;20086;-65
2024/01/03 05:56:15;;;;;;;2.70;1.00;;;10.60;95.20;;;;;;5051897;28;20124;-65
2024/01/03 05:58:42;;;;;;;2.72;1.00;;;10.60;94.90;;;;;;5051432;28;20115;-65
2024/01/03 06:01:08;;;;;;;1.75;0.80;;;10.60;95.00;;;;;;5051518;28;20076;-65
2024/01/03 06:03:34;;;;;;;1.48;0.75;;;10.60;94.80;;;;;;5052777;28;20056;-66
2024/01/03 06:06:00;;;;;;;1.38;0.80;;;10.70;94.80;;;;;;5051408;28;20063;-66
2024/01/03 06:08:25;;;;;;;1.25;0.70;;;10.70;94.80;;;;;;5050206;28;20021;-65
2024/01/03 06:10:51;;;;;;;1.75;0.60;;;10.60;95.00;;;;;;5051591;28;20025;-66
2024/01/03 06:13:17;;;;;;;1.17;0.60;;;10.60;95.00;;;;;;5051178;28;20170;-66
2024/01/03 06:15:43;;;;;;;1.38;0.70;;;10.60;95.20;;;;;;5051745;28;20083;-65
2024/01/03 06:18:10;;;;;;;0.75;0.60;;;10.50;95.30;;;;;;5051210;28;20037;-65
2024/01/03 06:20:36;;;;;;;2.80;0.70;;;10.50;95.40;;;;;;5051635;28;20028;-66
2024/01/03 06:23:01;;;;;;;0.93;0.68;;;10.40;95.60;;;;;;5051218;28;20349;-66
2024/01/03 06:25:27;;;;;;;1.45;0.75;;;10.40;95.80;;;;;;5051774;28;20100;-64
2024/01/03 06:27:53;;;;;;;1.42;0.82;;;10.30;95.90;;;;;;5051397;28;20114;-65
2024/01/03 06:30:19;;;;;;;1.10;0.80;;;10.30;96.10;;;;;;5051636;28;20025;-65
2024/01/03 06:32:45;;;;;;;0.77;0.70;;;10.20;96.20;;;;;;5051039;28;20397;-65
2024/01/03 06:35:10;;;;;;;1.80;0.70;;;10.20;96.40;;;;;;5051164;28;20032;-66
2024/01/03 06:37:36;;;;;;;4.18;0.90;;;10.10;96.50;;;;;;5051628;28;20033;-65
2024/01/03 06:40:01;;;;;;;1.08;0.88;;;10.10;96.70;;;;;;5051123;28;20044;-65
2024/01/03 06:42:27;;;;;;;1.00;0.80;;;10.10;96.80;;;;;;5051434;28;20044;-65
2024/01/03 06:44:53;;;;;;;1.40;0.73;;;10.00;96.90;;;;;;5050801;28;20476;-66
2024/01/03 06:47:19;;;;;;;1.38;0.50;;;10.00;97.00;;;;;;5049131;28;20343;-65
2024/01/03 06:49:45;;;;;;;1.48;0.80;;;10.00;97.20;;;;;;5051450;28;20032;-65
2024/01/03 06:52:10;;;;;;;1.20;0.70;;;10.00;97.20;;;;;;5050747;28;20111;-65
2024/01/03 06:54:36;;;;;;;1.88;1.25;;;10.00;97.30;;;;;;5050986;28;20021;-65
2024/01/03 06:57:03;;;;;;;1.20;0.80;;;10.10;97.20;;;;;;5050988;28;20032;-65
2024/01/03 06:59:29;;;;;;;1.50;0.90;;;10.10;97.10;;;;;;5049663;28;20495;-65
2024/01/03 07:01:54;;;;;;;2.67;0.70;;;10.10;96.90;;;;;;5050474;28;20116;-66
2024/01/03 07:04:22;;;;;;;3.08;0.90;;;10.10;96.80;;;;;;5051423;28;20073;-66
2024/01/03 07:06:47;;;;;;;3.22;1.05;;;10.20;96.70;;;;;;5051478;28;20029;-65
2024/01/03 07:09:13;;;;;;;2.13;1.20;;;10.20;96.40;;;;;;5050751;28;20070;-65
2024/01/03 07:11:39;;;;;;;0.77;0.57;;;10.20;96.40;;;;;;5051198;28;20037;-64
2024/01/03 07:14:05;;;;;;;1.30;0.90;;;10.20;96.40;;;;;;5050499;28;20025;-65
2024/01/03 07:16:31;;;;;;;1.55;0.65;;;10.20;96.30;;;;;;5051206;28;20021;-65
2024/01/03 07:18:56;;;;;;;1.67;0.90;;;10.20;96.20;;;;;;5050405;28;20029;-66
2024/01/03 07:21:25;;;;;;;3.42;1.08;;;10.30;96.10;;;;;;5050630;28;20401;-65
2024/01/03 07:23:51;;;;;;;1.67;0.90;;;10.30;96.10;;;;;;5050742;28;20029;-66
2024/01/03 07:26:16;;;;;;;1.77;0.70;;;10.30;96.00;;;;;;5053274;28;20040;-65
2024/01/03 07:28:42;;;;;;;1.80;0.70;;;10.40;96.00;;;;;;5054493;28;20033;-66
2024/01/03 07:31:08;;;;;;;1.58;0.70;;;10.40;95.90;;;;;;5054246;28;20025;-65
2024/01/03 07:33:33;;;;;;;1.02;0.50;;;10.40;95.80;;;;;;5054450;28;20039;-65
2024/01/03 07:35:59;;;;;;;0.75;0.60;;;10.50;95.60;;;;;;5053914;28;20385;-65
2024/01/03 07:38:24;;;;;;;2.25;0.82;;;10.50;95.50;;;;;;5054739;28;20033;-64
2024/01/03 07:40:50;;;;;;;1.58;0.50;;;10.60;95.50;;;;;;5054045;28;20135;-65
2024/01/03 07:43:15;;;;;;;1.23;0.63;;;10.60;95.50;;;;;;5053750;28;20025;-66
2024/01/03 07:45:41;;;;;;;1.10;0.60;;;10.60;95.50;;;;;;5054398;28;20033;-66
2024/01/03 07:48:07;;;;;;;1.52;0.80;;;10.70;95.40;;;;;;5053560;28;20029;-65
2024/01/03 07:50:32;;;;;;;1.80;0.80;;;10.70;95.30;;;;;;5053953;28;20440;-65
2024/01/03 07:52:58;;;;;;;1.40;0.80;;;10.80;95.20;;;;;;5053635;28;20218;-66
2024/01/03 07:55:24;;;;;;;1.15;0.60;;;10.80;95.10;;;;;;5056726;28;20024;-65
2024/01/03 07:57:50;;;;;;;2.40;0.50;;;10.80;94.90;;;;;;5074111;28;20036;-65
2024/01/03 08:00:16;;;;;;;0.85;0.70;;;10.80;94.70;;;;;;5073257;28;20394;-65
2024/01/03 08:02:41;;;;;;;0.85;0.65;;;10.90;94.40;;;;;;5073514;28;20032;-65
2024/01/03 08:05:07;;;;;;;0.88;0.55;;;10.90;94.20;;;;;;5073284;28;20020;-65
2024/01/03 08:07:33;;;;;;;1.10;0.55;;;11.00;94.00;;;;;;5073756;28;20036;-65
2024/01/03 08:09:59;;;;;;;0.85;0.50;;;11.10;93.40;;;;;;5073303;28;20437;-65
2024/01/03 08:12:24;;;;;;;1.38;0.55;;;11.10;93.00;;;;;;5073978;28;20173;-65
2024/01/03 08:14:50;;;;;;;1.85;0.63;;;11.20;92.90;;;;;;5073590;28;20025;-66
2024/01/03 08:17:16;;;;;;;0.98;0.63;;;11.20;92.80;;;;;;5073174;28;20472;-66
2024/01/03 08:19:41;;;;;;;1.45;0.50;;;11.30;92.40;;;;;;5073782;28;20024;-65
2024/01/03 08:22:07;;;;;;;0.57;0.50;;;11.30;92.10;;;;;;5073212;28;20432;-66
2024/01/03 08:24:33;;;;;;;1.48;0.73;;;11.30;92.00;;;;;;5073828;28;20047;-65
2024/01/03 08:26:59;;;;;;;1.95;1.17;;;11.40;91.70;;;;;;5073474;28;20528;-67
2024/01/03 08:29:24;;;;;;;0.90;0.57;;;11.50;91.70;;;;;;5073521;28;20422;-65
2024/01/03 08:31:50;;;;;;;1.77;0.60;;;11.50;91.50;;;;;;5073763;28;20058;-66
2024/01/03 08:34:15;;;;;;;0.70;0.50;;;11.50;91.50;;;;;;5073244;28;20051;-66
2024/01/03 08:36:45;;;;;;;1.63;0.93;;;11.60;91.30;;;;;;5067044;28;20033;-66
2024/01/03 08:39:11;;;;;;;1.52;0.93;;;11.60;91.20;;;;;;5053139;28;20033;-66
2024/01/03 08:41:37;;;;;;;1.00;0.60;;;11.60;91.10;;;;;;5052919;28;20078;-66
2024/01/03 08:44:05;;;;;;;1.42;0.98;;;11.70;90.50;;;;;;5053035;28;20470;-66
2024/01/03 08:46:34;;;;;;;1.13;0.50;;;11.70;90.20;;;;;;5053409;28;20047;-66
2024/01/03 08:49:01;;;;;;;2.40;0.70;;;11.80;90.00;;;;;;5052772;28;20042;-65
2024/01/03 08:51:27;;;;;;;1.90;0.70;;;11.90;89.10;;;;;;5053110;28;20389;-66
2024/01/03 08:53:53;;;;;;;0.63;0.40;;;12.00;88.10;;;;;;5053037;28;20107;-66
2024/01/03 08:56:19;;;;;;;0.85;0.55;;;12.00;87.10;;;;;;5052584;28;20029;-67
2024/01/03 08:58:47;;;;;;;0.70;0.50;;;12.20;86.30;;;;;;5052815;28;20025;-66
2024/01/03 09:01:16;;;;;;;1.25;0.80;;;12.20;85.70;;;;;;5052559;28;20041;-65
2024/01/03 09:03:42;;;;;;;0.50;0.50;;;12.30;85.70;;;;;;5052788;28;20083;-66
2024/01/03 09:06:08;;;;;;;1.65;0.50;;;12.30;85.20;;;;;;5051962;28;20416;-65
2024/01/03 09:08:34;;;;;;;2.85;0.60;;;12.40;84.70;;;;;;5052590;28;20100;-66
2024/01/03 09:10:59;;;;;;;1.42;0.63;;;12.40;84.00;;;;;;5051890;28;20036;-65
2024/01/03 09:13:25;;;;;;;0.73;0.50;;;12.40;83.30;;;;;;5052609;28;20025;-65
2024/01/03 09:15:52;;;;;;;2.15;0.60;;;12.50;83.40;;;;;;5052791;28;20033;-66
2024/01/03 09:18:17;;;;;;;1.40;0.70;;;12.50;83.40;;;;;;5051870;28;20025;-65
2024/01/03 09:20:43;;;;;;;0.95;0.57;;;12.50;83.20;;;;;;5051930;28;20027;-66
2024/01/03 09:23:09;;;;;;;0.85;0.68;;;12.50;82.90;;;;;;5051773;28;20051;-67
2024/01/03 09:25:34;;;;;;;0.85;0.40;;;12.60;82.80;;;;;;5052472;28;20087;-65
2024/01/03 09:28:00;;;;;;;1.80;0.50;;;12.60;82.80;;;;;;5052183;28;20021;-65
2024/01/03 09:30:26;;;;;;;1.17;0.45;;;12.60;82.50;;;;;;5052129;28;20059;-64
2024/01/03 09:32:53;;;;;;;1.42;0.52;;;12.70;81.60;;;;;;5052361;28;20058;-66
2024/01/03 09:35:19;;;;;;;0.60;0.52;;;12.70;81.80;;;;;;5051755;28;20036;-66
2024/01/03 09:37:45;;;;;;;1.50;0.60;;;12.70;81.70;;;;;;5052274;28;20021;-66
2024/01/03 09:40:11;;;;;;;0.90;0.77;;;12.70;82.00;;;;;;5051477;28;20366;-65
2024/01/03 09:42:37;;;;;;;0.70;0.52;;;12.80;81.30;;;;;;5051881;28;20033;-64
2024/01/03 09:45:04;;;;;;;1.45;0.52;;;12.80;81.10;;;;;;5051865;28;20108;-66
2024/01/03 09:47:29;;;;;;;2.78;0.50;;;12.80;81.00;;;;;;5051436;28;20083;-65
2024/01/03 09:49:55;;;;;;;2.17;0.57;;;12.80;81.90;;;;;;5051751;28;20469;-65
2024/01/03 09:52:22;;;;;;;0.95;0.50;;;12.80;81.50;;;;;;5051543;28;20326;-65
2024/01/03 09:54:47;;;;;;;0.50;0.50;;;12.80;82.10;;;;;;5051635;28;20482;-66
2024/01/03 09:57:15;;;;;;;2.90;0.88;;;12.80;82.20;;;;;;5051365;28;20033;-65
2024/01/03 09:59:41;;;;;;;1.27;0.60;;;12.80;82.20;;;;;;5051626;28;20052;-66
2024/01/03 10:02:07;;;;;;;0.68;0.65;;;12.80;81.90;;;;;;5051359;28;20446;-66
2024/01/03 10:04:33;;;;;;;1.13;0.60;;;12.80;82.00;;;;;;5066913;28;20024;-66
2024/01/03 10:06:59;;;;;;;1.02;0.60;;;12.70;82.50;;;;;;5071809;28;20091;-66
2024/01/03 10:09:39;;;;;;;0.98;0.60;;;12.70;82.90;;;;;;5071223;28;20025;-66
2024/01/03 10:12:16;;;;;;;0.43;0.43;;;12.80;82.80;;;;;;5071387;28;20098;-66
2024/01/03 10:14:42;;;;;;;0.68;0.57;;;12.80;81.80;;;;;;5071714;28;20389;-65
2024/01/03 10:17:10;;;;;;;1.48;0.60;;;13.00;81.30;;;;;;5071264;28;20021;-66
2024/01/03 10:19:37;;;;;;;0.80;0.43;;;13.10;79.90;;;;;;5072065;28;20025;-66
2024/01/03 10:22:04;;;;;;;0.57;0.40;;;13.20;80.20;;;;;;5071481;28;20149;-66
2024/01/03 10:24:31;;;;;;;0.60;0.40;;;13.40;79.20;;;;;;5071497;28;20029;-65
2024/01/03 10:27:10;;;;;;;0.90;0.60;;;13.40;78.90;;;;;;5071463;28;20025;-65
2024/01/03 10:29:39;;;;;;;1.38;0.52;;;13.50;77.90;;;;;;5071590;28;20036;-66
2024/01/03 10:32:09;;;;;;;1.02;0.50;;;13.60;77.80;;;;;;5070852;28;20062;-65
2024/01/03 10:34:36;;;;;;;1.38;0.70;;;13.70;77.60;;;;;;5052703;28;20074;-65
2024/01/03 10:37:03;;;;;;;1.75;0.80;;;13.80;77.00;;;;;;5051243;28;20416;-65
2024/01/03 10:39:30;;;;;;;0.60;0.60;;;13.80;76.20;;;;;;5050422;28;20028;-65
2024/01/03 10:41:57;;;;;;;1.15;0.65;;;13.90;75.90;;;;;;5051029;28;20099;-65
2024/01/03 10:44:23;;;;;;;3.80;0.70;;;14.00;76.00;;;;;;5050713;28;20026;-65
2024/01/03 10:46:51;;;;;;;0.60;0.45;;;14.00;75.00;;;;;;5051317;28;20459;-66
2024/01/03 10:49:17;;;;;;;1.50;0.43;;;14.10;75.00;;;;;;5050840;28;20036;-66
2024/01/03 10:51:44;;;;;;;0.70;0.52;;;14.10;75.00;;;;;;5051240;28;20032;-65
2024/01/03 10:54:11;;;;;;;0.98;0.50;;;14.10;74.80;;;;;;5050911;28;20107;-66
2024/01/03 10:56:38;;;;;;;0.75;0.32;;;14.20;75.40;;;;;;5051036;28;20523;-65
2024/01/03 10:59:07;;;;;;;2.70;0.50;;;14.20;75.50;;;;;;5051470;28;20166;-66
2024/01/03 11:01:45;;;;;;;0.88;0.47;;;14.20;75.60;;;;;;5055130;28;20385;-66
2024/01/03 11:04:34;;;;;;;0.82;0.63;;;14.20;75.30;;;;;;5054864;28;20028;-66
2024/01/03 11:07:29;;;;;;;0.63;0.52;;;14.20;75.60;;;;;;5055043;28;20047;-66
2024/01/03 11:09:55;;;;;;;0.52;0.40;;;14.30;75.20;;;;;;5054957;28;20370;-65
2024/01/03 11:12:27;;;;;;;1.35;0.40;;;14.20;74.10;;;;;;5054257;28;20093;-66
2024/01/03 11:14:52;;;;;;;0.63;0.40;;;14.20;73.50;;;;;;5055044;28;20040;-66
2024/01/03 11:17:33;;;;;;;0.47;0.47;;;14.20;73.90;;;;;;5054200;28;20075;-65
2024/01/03 11:20:08;;;;;;;0.87;0.43;;;14.20;73.30;;;;;;5054846;28;20377;-66
2024/01/03 11:22:56;;;;;;;0.55;0.40;;;14.20;73.00;;;;;;5054703;28;20078;-66
2024/01/03 11:25:47;;;;;;;1.75;0.45;;;14.20;73.50;;;;;;5054148;28;20025;-66
2024/01/03 11:28:32;;;;;;;0.65;0.40;;;14.20;73.70;;;;;;5054033;28;20101;-66
2024/01/03 11:30:59;;;;;;;3.20;0.45;;;14.20;74.10;;;;;;5054352;28;20037;-66
2024/01/03 11:33:25;;;;;;;0.90;0.35;;;14.30;74.70;;;;;;5053969;28;20021;-65
2024/01/03 11:35:51;;;;;;;1.33;0.57;;;14.20;74.90;;;;;;5053959;28;20381;-65
2024/01/03 11:38:43;;;;;;;0.25;0.22;;;14.30;75.60;;;;;;5053579;28;20025;-65
2024/01/03 11:41:14;;;;;;;0.30;0.30;;;14.30;75.50;;;;;;5054044;28;20029;-65
2024/01/03 11:43:39;;;;;;;0.35;0.35;;;14.40;76.00;;;;;;5054576;28;20033;-66
2024/01/03 11:46:12;;;;;;;0.85;0.30;;;14.40;75.90;;;;;;5053960;28;20087;-66
2024/01/03 11:48:39;;;;;;;0.65;0.43;;;14.30;76.10;;;;;;5054086;28;20508;-65
2024/01/03 11:51:24;;;;;;;3.15;0.75;;;14.30;75.90;;;;;;5053981;28;20541;-65
2024/01/03 11:53:50;;;;;;;0.55;0.50;;;14.30;76.20;;;;;;5053840;28;20033;-65
2024/01/03 11:56:34;;;;;;;2.85;0.50;;;14.30;75.90;;;;;;5053655;28;20029;-65
2024/01/03 11:59:02;;;;;;;0.50;0.40;;;14.20;75.40;;;;;;5054009;28;20068;-66
2024/01/03 12:01:28;;;;;;;0.90;0.60;;;14.10;75.60;;;;;;5053450;28;20116;-65
2024/01/03 12:04:10;;;;;;;1.52;0.68;;;14.10;75.60;;;;;;5057364;28;20116;-65
2024/01/03 12:06:36;;;;;;;2.05;0.60;;;14.10;75.20;;;;;;5073897;28;20354;-66
2024/01/03 12:09:03;;;;;;;2.45;0.40;;;14.20;75.30;;;;;;5073753;28;20063;-66
2024/01/03 12:11:29;;;;;;;1.00;0.60;;;14.10;74.10;;;;;;5072244;28;20033;-66
2024/01/03 12:13:55;;;;;;;1.30;0.60;;;14.20;74.70;;;;;;5074047;28;20055;-66
2024/01/03 12:16:21;;;;;;;1.50;0.60;;;14.10;74.30;;;;;;5073308;28;20107;-66
2024/01/03 12:18:48;;;;;;;1.63;0.60;;;14.10;74.70;;;;;;5073377;28;20116;-66
2024/01/03 12:21:14;;;;;;;3.47;0.65;;;14.10;74.40;;;;;;5072829;28;20469;-66
2024/01/03 12:23:59;;;;;;;1.45;0.70;;;14.10;74.00;;;;;;5073179;28;20074;-66
2024/01/03 12:26:25;;;;;;;2.65;0.70;;;14.10;74.00;;;;;;5072890;28;20028;-66
2024/01/03 12:28:58;;;;;;;0.30;0.30;;;14.10;73.30;;;;;;5073752;28;20029;-66
2024/01/03 12:31:24;;;;;;;2.67;0.50;;;14.10;73.10;;;;;;5056463;28;20037;-66
2024/01/03 12:33:50;;;;;;;4.15;0.82;;;14.10;73.00;;;;;;5053435;28;20353;-66
2024/01/03 12:36:15;;;;;;;1.65;0.63;;;14.00;72.90;;;;;;5053029;28;20513;-66
2024/01/03 12:38:41;;;;;;;1.67;0.88;;;14.00;72.90;;;;;;5053405;28;20363;-65
2024/01/03 12:41:07;;;;;;;3.15;0.80;;;14.00;72.60;;;;;;5053013;28;20037;-65
2024/01/03 12:43:33;;;;;;;1.30;0.60;;;14.00;72.80;;;;;;5052915;28;20458;-66
2024/01/03 12:45:59;;;;;;;1.48;0.60;;;14.00;73.00;;;;;;5052752;28;20384;-64
2024/01/03 12:48:25;;;;;;;1.95;0.80;;;14.00;72.50;;;;;;5052759;28;20029;-65